KMVH

N Bar Ranch Airport

Grassrange, Montana, USA
METAR KMVH 171835Z AUTO 16009KT 10SM CLR 17/M04 A3035 RMK AO2
Observed Flight Rules
Oct-17 @ 18:35 UTC (26 minutes ago) Visual Flight Rules
Wind Visibility Clouds
160° at 9 knots 10 miles
  • Clear skies
Temperatures Readings
Current 17°C / 63°F
Dewpoint -4°C / 25°F
Humidity 24%
Altimeter 30.35" Hg
Pressure 1028 hPa
Elevation 1355
METAR KMVH 171835Z AUTO 16009KT 10SM CLR 17/M04 A3035 RMK AO2
Observed Flight Rules
Oct-17 @ 18:35 UTC
(26 minutes ago)
VFR
Wind Visibility
160° at 9 knots 10 miles
Clouds
  • Clear skies
Temperature Dewpoint
17°C / 63°F -4°C / 25°F
Humidity Altimeter Pressure
24% 30.35" Hg 1028 hPa